createdAt,value
2018-12-24T00:00:27.791Z,99.99
2018-12-24T00:01:27.762Z,99.99
2018-12-24T00:02:27.749Z,99.99
2018-12-24T00:03:27.734Z,99.99
2018-12-24T00:04:27.730Z,99.99
2018-12-24T00:05:27.736Z,99.99
2018-12-24T00:06:27.719Z,99.99
2018-12-24T00:07:27.717Z,99.99
2018-12-24T00:08:27.679Z,99.99
2018-12-24T00:09:27.671Z,99.99
2018-12-24T00:10:27.685Z,99.99
2018-12-24T00:11:27.647Z,99.99
2018-12-24T00:12:27.630Z,99.99
2018-12-24T00:13:27.629Z,99.99
2018-12-24T00:14:27.625Z,99.99
2018-12-24T00:15:27.637Z,99.99
2018-12-24T00:16:27.600Z,99.99
2018-12-24T00:17:27.651Z,99.99
2018-12-24T00:18:27.575Z,99.99
2018-12-24T00:19:27.589Z,99.99
2018-12-24T00:20:27.578Z,99.99
2018-12-24T00:21:27.569Z,99.99
2018-12-24T00:22:27.538Z,99.99
2018-12-24T00:23:27.525Z,99.99
2018-12-24T00:24:27.513Z,99.99
2018-12-24T00:25:27.533Z,99.99
2018-12-24T00:26:27.495Z,99.99
2018-12-24T00:27:27.513Z,99.99
2018-12-24T00:28:27.475Z,99.99
2018-12-24T00:29:27.474Z,99.99
2018-12-24T00:30:27.479Z,99.99
2018-12-24T00:31:27.442Z,99.99
2018-12-24T00:32:27.430Z,99.99
2018-12-24T00:33:27.419Z,99.99
2018-12-24T00:34:27.413Z,99.99
2018-12-24T00:35:27.418Z,99.99
2018-12-24T00:36:27.403Z,99.99
2018-12-24T00:37:27.369Z,99.99
2018-12-24T00:38:27.378Z,99.99
2018-12-24T00:39:27.360Z,99.99
2018-12-24T00:40:27.366Z,99.99
2018-12-24T00:41:27.334Z,99.99
2018-12-24T00:42:27.322Z,99.99
2018-12-24T00:43:27.302Z,99.99
2018-12-24T00:44:27.308Z,99.99
2018-12-24T00:45:27.319Z,99.99
2018-12-24T00:46:27.288Z,99.99
2018-12-24T00:47:27.274Z,99.99
2018-12-24T00:48:27.293Z,99.99
2018-12-24T00:49:27.250Z,99.99
2018-12-24T00:50:27.261Z,99.99
2018-12-24T00:51:27.227Z,99.99
2018-12-24T00:52:27.219Z,99.99
2018-12-24T00:53:27.212Z,99.99
2018-12-24T00:54:27.200Z,99.99
2018-12-24T00:55:27.201Z,99.99
2018-12-24T00:56:27.170Z,99.99
2018-12-24T00:57:27.163Z,99.99
2018-12-24T00:58:27.159Z,99.99
2018-12-24T00:59:27.141Z,99.99
2018-12-24T01:00:27.152Z,99.99
2018-12-24T01:01:27.114Z,99.99
2018-12-24T01:02:27.108Z,99.99
2018-12-24T01:03:27.092Z,99.99
2018-12-24T01:04:27.087Z,99.99
2018-12-24T01:05:27.096Z,99.99
2018-12-24T01:06:27.063Z,99.99
2018-12-24T01:07:27.048Z,99.99
2018-12-24T01:08:27.029Z,99.99
2018-12-24T01:09:27.030Z,99.99
2018-12-24T01:10:27.016Z,99.99
2018-12-24T01:11:27.006Z,99.99
2018-12-24T01:12:26.985Z,99.99
2018-12-24T01:13:26.979Z,99.99
2018-12-24T01:14:26.976Z,99.99
2018-12-24T01:15:26.950Z,99.99
2018-12-24T01:16:26.987Z,99.99
2018-12-24T01:17:26.964Z,99.99
2018-12-24T01:18:26.928Z,99.99
2018-12-24T01:19:26.929Z,99.99
2018-12-24T01:20:26.907Z,99.99
2018-12-24T01:21:26.912Z,99.99
2018-12-24T01:22:26.877Z,99.99
2018-12-24T01:23:26.864Z,99.99
2018-12-24T01:24:26.876Z,99.99
2018-12-24T01:25:26.857Z,99.99
2018-12-24T01:26:26.855Z,99.99
2018-12-24T01:27:26.848Z,99.99
2018-12-24T01:28:26.819Z,99.99
2018-12-24T01:29:26.821Z,99.99
2018-12-24T01:30:26.813Z,99.99
2018-12-24T01:31:26.805Z,99.99
2018-12-24T01:32:26.781Z,99.99
2018-12-24T01:33:26.769Z,99.99
2018-12-24T01:34:26.753Z,99.99
2018-12-24T01:36:37.160Z,99.99
2018-12-24T01:37:38.080Z,99.99
2018-12-24T01:38:38.066Z,99.99
2018-12-24T01:39:38.054Z,99.99
2018-12-24T01:40:38.054Z,99.99
2018-12-24T01:41:38.288Z,99.99
2018-12-24T01:42:38.024Z,99.99
2018-12-24T01:43:38.016Z,99.99
2018-12-24T01:44:38.005Z,99.99
2018-12-24T01:45:37.996Z,99.99
2018-12-24T01:46:37.993Z,99.99
2018-12-24T01:47:37.973Z,99.99
2018-12-24T01:48:37.963Z,99.99
2018-12-24T01:49:37.960Z,99.99
2018-12-24T01:50:37.937Z,99.99
2018-12-24T01:51:37.927Z,99.99
2018-12-24T01:52:37.949Z,99.99
2018-12-24T01:53:37.914Z,99.99
2018-12-24T01:54:37.912Z,99.99
2018-12-24T01:55:37.882Z,99.99
2018-12-24T01:56:37.862Z,99.99
2018-12-24T01:57:37.879Z,99.99
2018-12-24T01:58:37.841Z,99.99
2018-12-24T01:59:37.841Z,99.99
2018-12-24T02:00:37.823Z,99.99
2018-12-24T02:01:37.821Z,99.99
2018-12-24T02:02:37.824Z,99.99
2018-12-24T02:03:37.794Z,99.99
2018-12-24T02:04:37.786Z,99.99
2018-12-24T02:05:37.766Z,99.99
2018-12-24T02:06:37.751Z,99.99
2018-12-24T02:07:37.765Z,99.99
2018-12-24T02:08:37.745Z,99.99
2018-12-24T02:09:37.726Z,99.99
2018-12-24T02:10:37.706Z,99.99
2018-12-24T02:11:37.703Z,99.99
2018-12-24T02:12:42.231Z,99.99
2018-12-24T02:13:37.685Z,99.99
2018-12-24T02:14:37.680Z,99.99
2018-12-24T02:15:37.678Z,99.99
2018-12-24T02:16:37.647Z,99.99
2018-12-24T02:17:37.654Z,99.99
2018-12-24T02:18:37.630Z,99.99
2018-12-24T02:19:37.623Z,99.99
2018-12-24T02:20:37.601Z,99.99
2018-12-24T02:21:37.621Z,99.99
2018-12-24T02:22:37.611Z,99.99
2018-12-24T02:23:37.571Z,99.99
2018-12-24T02:24:37.562Z,99.99
2018-12-24T02:25:37.551Z,99.99
2018-12-24T02:26:37.531Z,99.99
2018-12-24T02:27:37.550Z,99.99
2018-12-24T02:28:37.525Z,99.99
2018-12-24T02:29:37.510Z,99.99
2018-12-24T02:30:37.494Z,99.99
2018-12-24T02:31:37.487Z,99.99
2018-12-24T02:32:37.488Z,99.99
2018-12-24T02:33:37.465Z,99.99
2018-12-24T02:34:37.452Z,99.99
2018-12-24T02:35:37.435Z,99.99
2018-12-24T02:36:37.433Z,99.99
2018-12-24T02:37:37.444Z,99.99
2018-12-24T02:38:37.412Z,99.99
2018-12-24T02:39:37.398Z,99.99
2018-12-24T02:40:37.385Z,99.99
2018-12-24T02:41:37.375Z,99.99
2018-12-24T02:42:37.400Z,99.99
2018-12-24T02:43:37.366Z,99.99
2018-12-24T02:44:37.337Z,99.99
2018-12-24T02:45:37.329Z,99.99
2018-12-24T02:46:37.326Z,99.99
2018-12-24T02:47:37.334Z,99.99
2018-12-24T02:48:37.291Z,99.99
2018-12-24T02:49:37.302Z,99.99
2018-12-24T02:50:37.312Z,99.99
2018-12-24T02:51:37.283Z,99.99
2018-12-24T02:52:37.277Z,99.99
2018-12-24T02:53:37.248Z,99.99
2018-12-24T02:54:37.226Z,99.99
2018-12-24T02:55:37.230Z,99.99
2018-12-24T02:56:37.215Z,99.99
2018-12-24T02:57:37.216Z,99.99
2018-12-24T02:58:37.190Z,99.99
2018-12-24T02:59:37.185Z,99.99
2018-12-24T03:00:37.172Z,99.99
2018-12-24T03:01:37.293Z,99.99
2018-12-24T03:02:37.174Z,99.99
2018-12-24T03:03:37.139Z,99.99
2018-12-24T03:04:37.123Z,99.99
2018-12-24T03:05:37.110Z,99.99
2018-12-24T03:06:37.106Z,99.99
2018-12-24T03:07:37.111Z,99.99
2018-12-24T03:08:37.093Z,99.99
2018-12-24T03:09:37.070Z,99.99
2018-12-24T03:10:37.082Z,99.99
2018-12-24T03:11:37.044Z,99.99
2018-12-24T03:12:37.051Z,99.99
2018-12-24T03:13:37.022Z,99.99
2018-12-24T03:14:37.025Z,99.99
2018-12-24T03:15:36.997Z,99.99
2018-12-24T03:16:37.000Z,99.99
2018-12-24T03:17:36.972Z,99.99
2018-12-24T03:18:36.996Z,99.99
2018-12-24T03:19:36.960Z,99.99
2018-12-24T03:20:36.967Z,99.99
2018-12-24T03:21:36.950Z,99.99
2018-12-24T03:22:36.923Z,99.99
2018-12-24T03:23:36.934Z,99.99
2018-12-24T03:24:36.897Z,99.99
2018-12-24T03:25:36.898Z,99.99
2018-12-24T03:26:36.878Z,99.99
2018-12-24T03:27:36.876Z,99.99
2018-12-24T03:28:36.884Z,99.99
2018-12-24T03:29:36.865Z,99.99
2018-12-24T03:30:36.848Z,99.99
2018-12-24T03:31:36.841Z,99.99
2018-12-24T03:32:36.811Z,99.99
2018-12-24T03:33:36.830Z,99.99
2018-12-24T03:34:36.800Z,99.99
2018-12-24T03:35:36.785Z,99.99
2018-12-24T03:37:47.093Z,99.99
2018-12-24T03:38:48.105Z,99.99
2018-12-24T03:39:48.055Z,99.99
2018-12-24T03:40:48.018Z,99.99
2018-12-24T03:41:48.015Z,99.99
2018-12-24T03:42:47.997Z,99.99
2018-12-24T03:43:47.990Z,99.99
2018-12-24T03:44:48.005Z,99.99
2018-12-24T03:45:47.979Z,99.99
2018-12-24T03:46:47.966Z,99.99
2018-12-24T03:47:47.949Z,99.99
2018-12-24T03:48:47.952Z,99.99
2018-12-24T03:49:47.948Z,99.99
2018-12-24T03:50:47.917Z,99.99
2018-12-24T03:51:47.918Z,99.99
2018-12-24T03:52:47.899Z,99.99
2018-12-24T03:53:47.891Z,99.99
2018-12-24T03:54:47.903Z,99.99
2018-12-24T03:55:47.955Z,99.99
2018-12-24T03:56:47.859Z,99.99
2018-12-24T03:57:47.839Z,99.99
2018-12-24T03:58:47.827Z,99.99
2018-12-24T03:59:47.834Z,99.99
2018-12-24T04:00:47.812Z,99.99
2018-12-24T04:01:47.827Z,99.99
2018-12-24T04:02:47.783Z,99.99
2018-12-24T04:03:47.776Z,99.99
2018-12-24T04:04:47.785Z,99.99
2018-12-24T04:05:47.748Z,99.99
2018-12-24T04:06:47.737Z,99.99
2018-12-24T04:07:47.736Z,99.99
2018-12-24T04:08:47.729Z,99.99
2018-12-24T04:09:47.729Z,99.99
2018-12-24T04:10:47.697Z,99.99
2018-12-24T04:11:47.689Z,99.99
2018-12-24T04:12:47.680Z,99.99
2018-12-24T04:13:47.690Z,99.99
2018-12-24T04:14:47.683Z,99.99
2018-12-24T04:15:47.641Z,99.99
2018-12-24T04:16:47.627Z,99.99
2018-12-24T04:17:47.636Z,99.99
2018-12-24T04:18:47.603Z,99.99
2018-12-24T04:19:47.629Z,99.99
2018-12-24T04:20:47.587Z,99.99
2018-12-24T04:21:47.584Z,99.99
2018-12-24T04:22:47.590Z,99.99
2018-12-24T04:23:47.568Z,99.99
2018-12-24T04:24:47.563Z,99.99
2018-12-24T04:25:47.731Z,99.99
2018-12-24T04:26:47.537Z,99.99
2018-12-24T04:27:47.516Z,99.99
2018-12-24T04:28:47.507Z,99.99
2018-12-24T04:29:47.507Z,99.99
2018-12-24T04:30:47.487Z,99.99
2018-12-24T04:31:47.475Z,99.99
2018-12-24T04:32:47.465Z,99.99
2018-12-24T04:33:47.443Z,99.99
2018-12-24T04:34:47.472Z,99.99
2018-12-24T04:35:47.425Z,99.99
2018-12-24T04:36:47.425Z,99.99
2018-12-24T04:37:47.403Z,99.99
2018-12-24T04:38:47.405Z,99.99
2018-12-24T04:39:47.419Z,99.99
2018-12-24T04:40:47.381Z,99.99
2018-12-24T04:41:47.360Z,99.99
2018-12-24T04:42:47.350Z,99.99
2018-12-24T04:43:47.350Z,99.99
2018-12-24T04:44:47.356Z,99.99
2018-12-24T04:45:47.330Z,99.99
2018-12-24T04:46:47.312Z,99.99
2018-12-24T04:47:47.322Z,99.99
2018-12-24T04:48:47.305Z,99.99
2018-12-24T04:49:47.304Z,99.99
2018-12-24T04:50:47.274Z,99.99
2018-12-24T04:51:47.248Z,99.99
2018-12-24T04:52:47.253Z,99.99
2018-12-24T04:53:47.227Z,99.99
2018-12-24T04:54:47.253Z,99.99
2018-12-24T04:55:47.218Z,99.99
2018-12-24T04:56:47.198Z,99.99
2018-12-24T04:57:47.187Z,99.99
2018-12-24T04:58:47.174Z,99.99
2018-12-24T04:59:47.193Z,99.99
2018-12-24T05:00:47.170Z,99.99
2018-12-24T05:01:47.139Z,99.51
2018-12-24T05:02:47.137Z,99.30
2018-12-24T05:03:47.131Z,98.37
2018-12-24T05:04:47.137Z,97.64
2018-12-24T05:05:47.115Z,97.85
2018-12-24T05:06:47.087Z,96.41
2018-12-24T05:07:47.076Z,95.27
2018-12-24T05:08:47.072Z,95.95
2018-12-24T05:09:47.074Z,95.43
2018-12-24T05:10:47.050Z,94.81
2018-12-24T05:11:47.035Z,94.29
2018-12-24T05:12:47.021Z,94.40
2018-12-24T05:13:47.013Z,94.60
2018-12-24T05:14:47.016Z,93.78
2018-12-24T05:15:47.012Z,94.40
2018-12-24T05:16:46.989Z,94.81
2018-12-24T05:17:46.979Z,95.12
2018-12-24T05:18:46.969Z,92.64
2018-12-24T05:19:46.965Z,91.92
2018-12-24T05:20:46.964Z,91.40
2018-12-24T05:21:46.927Z,91.61
2018-12-24T05:22:46.912Z,91.50
2018-12-24T05:23:46.916Z,91.61
2018-12-24T05:24:46.915Z,91.61
2018-12-24T05:25:46.901Z,92.23
2018-12-24T05:26:46.931Z,91.96
2018-12-24T05:27:46.860Z,92.99
2018-12-24T05:28:46.856Z,92.74
2018-12-24T05:29:46.863Z,92.68
2018-12-24T05:30:46.851Z,92.89
2018-12-24T05:31:46.832Z,92.79
2018-12-24T05:32:46.823Z,93.10
2018-12-24T05:33:46.804Z,94.03
2018-12-24T05:34:46.797Z,94.13
2018-12-24T05:35:46.822Z,93.10
2018-12-24T05:36:46.780Z,92.89
2018-12-24T05:38:56.001Z,92.17
2018-12-24T05:39:56.932Z,92.48
2018-12-24T05:40:56.951Z,91.44
2018-12-24T05:41:56.912Z,91.55
2018-12-24T05:42:56.914Z,90.62
2018-12-24T05:43:56.911Z,90.10
2018-12-24T05:44:56.963Z,90.31
2018-12-24T05:45:56.890Z,90.52
2018-12-24T05:46:56.860Z,89.59
2018-12-24T05:47:56.876Z,89.59
2018-12-24T05:48:56.858Z,89.59
2018-12-24T05:49:56.837Z,90.20
2018-12-24T05:50:56.834Z,90.72
2018-12-24T05:51:56.859Z,89.59
2018-12-24T05:52:56.805Z,89.48
2018-12-24T05:53:56.795Z,89.69
2018-12-24T05:54:56.800Z,89.48
2018-12-24T05:55:56.867Z,90.20
2018-12-24T05:56:56.765Z,90.41
2018-12-24T05:57:56.771Z,90.52
2018-12-24T05:58:56.735Z,91.86
2018-12-24T05:59:56.717Z,91.24
2018-12-24T06:00:56.742Z,90.62
2018-12-24T06:01:56.718Z,90.62
2018-12-24T06:02:56.688Z,90.72
2018-12-24T06:03:56.692Z,90.10
2018-12-24T06:04:56.660Z,90.31
2018-12-24T06:05:56.686Z,90.41
2018-12-24T06:06:56.681Z,90.52
2018-12-24T06:07:56.682Z,90.41
2018-12-24T06:08:56.648Z,91.03
2018-12-24T06:09:56.627Z,90.87
2018-12-24T06:10:56.632Z,90.45
2018-12-24T06:11:56.627Z,90.87
2018-12-24T06:12:56.591Z,90.83
2018-12-24T06:13:58.092Z,90.35
2018-12-24T06:14:56.586Z,89.69
2018-12-24T06:15:56.571Z,89.69
2018-12-24T06:16:56.579Z,89.69
2018-12-24T06:17:57.670Z,89.11
2018-12-24T06:18:56.529Z,89.52
2018-12-24T06:19:56.512Z,89.28
2018-12-24T06:20:56.512Z,90.25
2018-12-24T06:21:56.490Z,89.94
2018-12-24T06:22:56.464Z,89.94
2018-12-24T06:23:56.456Z,90.45
2018-12-24T06:24:56.454Z,90.77
2018-12-24T06:25:56.449Z,90.35
2018-12-24T06:26:56.447Z,90.45
2018-12-24T06:27:56.417Z,90.45
2018-12-24T06:28:56.421Z,90.66
2018-12-24T06:29:56.416Z,90.87
2018-12-24T06:30:56.409Z,91.69
2018-12-24T06:31:56.394Z,91.80
2018-12-24T06:32:56.353Z,91.07
2018-12-24T06:33:56.373Z,92.32
2018-12-24T06:34:56.335Z,91.17
2018-12-24T06:35:56.351Z,91.69
2018-12-24T06:36:56.334Z,92.11
2018-12-24T06:37:56.325Z,92.21
2018-12-24T06:38:56.310Z,92.52
2018-12-24T06:39:56.290Z,93.14
2018-12-24T06:40:56.282Z,92.63
2018-12-24T06:41:56.280Z,93.04
2018-12-24T06:42:56.254Z,92.83
2018-12-24T06:43:56.243Z,93.60
2018-12-24T06:44:56.244Z,94.12
2018-12-24T06:45:56.247Z,93.66
2018-12-24T06:46:56.234Z,94.53
2018-12-24T06:47:56.197Z,94.32
2018-12-24T06:48:56.209Z,94.94
2018-12-24T06:49:56.178Z,95.25
2018-12-24T06:50:56.193Z,96.12
2018-12-24T06:51:56.203Z,95.71
2018-12-24T06:52:56.142Z,95.61
2018-12-24T06:53:56.152Z,95.71
2018-12-24T06:54:56.118Z,96.02
2018-12-24T06:55:56.119Z,95.81
2018-12-24T06:56:56.117Z,96.70
2018-12-24T06:57:56.081Z,96.75
2018-12-24T06:58:56.089Z,96.54
2018-12-24T06:59:56.065Z,96.64
2018-12-24T07:00:56.064Z,97.26
2018-12-24T07:01:56.041Z,97.78
2018-12-24T07:02:56.050Z,97.16
2018-12-24T07:03:56.055Z,97.57
2018-12-24T07:04:56.029Z,97.47
2018-12-24T07:05:55.995Z,98.09
2018-12-24T07:06:56.004Z,97.88
2018-12-24T07:07:55.972Z,98.30
2018-12-24T07:08:55.970Z,97.99
2018-12-24T07:09:55.952Z,97.99
2018-12-24T07:10:55.944Z,98.30
2018-12-24T07:11:55.991Z,98.09
2018-12-24T07:12:55.914Z,97.88
2018-12-24T07:13:55.911Z,97.67
2018-12-24T07:14:55.932Z,97.78
2018-12-24T07:15:55.918Z,98.19
2018-12-24T07:16:56.001Z,97.57
2018-12-24T07:17:55.928Z,96.85
2018-12-24T07:18:55.862Z,95.96
2018-12-24T07:19:55.884Z,95.54
2018-12-24T07:20:55.870Z,95.75
2018-12-24T07:21:55.868Z,95.14
2018-12-24T07:22:55.845Z,95.03
2018-12-24T07:23:55.854Z,94.66
2018-12-24T07:24:55.785Z,94.24
2018-12-24T07:25:55.787Z,94.04
2018-12-24T07:26:55.842Z,93.10
2018-12-24T07:27:55.809Z,93.41
2018-12-24T07:28:59.127Z,93.41
2018-12-24T07:29:55.750Z,93.41
2018-12-24T07:30:55.774Z,93.56
2018-12-24T07:31:55.760Z,93.52
2018-12-24T07:32:55.742Z,92.84
2018-12-24T07:33:55.761Z,92.22
2018-12-24T07:34:55.694Z,92.32
2018-12-24T07:35:55.674Z,92.94
2018-12-24T07:36:55.688Z,92.43
2018-12-24T07:37:55.707Z,92.43
2018-12-24T07:40:04.834Z,92.11
2018-12-24T07:41:05.817Z,91.60
2018-12-24T07:42:05.812Z,91.80
2018-12-24T07:43:05.815Z,91.70
2018-12-24T07:44:05.782Z,92.22
2018-12-24T07:45:05.810Z,91.80
2018-12-24T07:46:05.770Z,91.80
2018-12-24T07:47:05.766Z,91.39
2018-12-24T07:48:06.009Z,91.70
2018-12-24T07:49:05.741Z,91.70
2018-12-24T07:50:05.729Z,91.43
2018-12-24T07:51:05.718Z,92.78
2018-12-24T07:52:05.705Z,92.26
2018-12-24T07:53:05.716Z,92.57
2018-12-24T07:54:05.692Z,92.47
2018-12-24T07:55:05.675Z,92.93
2018-12-24T07:56:05.664Z,92.30
2018-12-24T07:57:05.645Z,92.72
2018-12-24T07:58:05.668Z,92.82
2018-12-24T07:59:05.621Z,92.30
2018-12-24T08:00:05.626Z,92.72
2018-12-24T08:01:05.619Z,93.02
2018-12-24T08:02:05.610Z,92.51
2018-12-24T08:03:05.602Z,92.93
2018-12-24T08:04:05.591Z,92.97
2018-12-24T08:05:05.561Z,92.86
2018-12-24T08:06:05.566Z,93.18
2018-12-24T08:07:05.544Z,92.86
2018-12-24T08:08:05.558Z,93.07
2018-12-24T08:09:05.526Z,93.07
2018-12-24T08:10:05.505Z,92.45
2018-12-24T08:11:05.498Z,92.45
2018-12-24T08:12:05.490Z,92.76
2018-12-24T08:13:05.500Z,91.93
2018-12-24T08:14:05.470Z,92.45
2018-12-24T08:15:05.464Z,92.45
2018-12-24T08:16:05.448Z,91.93
2018-12-24T08:17:05.431Z,91.83
2018-12-24T08:18:05.451Z,92.35
2018-12-24T08:19:05.422Z,91.83
2018-12-24T08:20:05.394Z,92.35
2018-12-24T08:21:05.397Z,91.62
2018-12-24T08:22:05.372Z,90.75
2018-12-24T08:23:05.432Z,91.06
2018-12-24T08:24:05.357Z,91.06
2018-12-24T08:25:05.338Z,90.95
2018-12-24T08:26:05.335Z,90.44
2018-12-24T08:27:05.330Z,89.81
2018-12-24T08:28:05.330Z,90.23
2018-12-24T08:29:05.308Z,89.81
2018-12-24T08:30:05.296Z,89.81
2018-12-24T08:31:05.281Z,89.87
2018-12-24T08:32:05.263Z,88.46
2018-12-24T08:33:05.279Z,88.94
2018-12-24T08:34:05.257Z,89.25
2018-12-24T08:35:05.246Z,88.84
2018-12-24T08:36:05.224Z,88.94
2018-12-24T08:37:05.213Z,88.32
2018-12-24T08:38:05.227Z,87.80
2018-12-24T08:39:05.217Z,87.38
2018-12-24T08:40:05.175Z,87.90
2018-12-24T08:41:05.173Z,87.38
2018-12-24T08:42:05.160Z,87.28
2018-12-24T08:43:05.167Z,87.28
2018-12-24T08:44:05.135Z,87.28
2018-12-24T08:45:05.132Z,86.76
2018-12-24T08:46:05.124Z,86.66
2018-12-24T08:47:05.118Z,86.76
2018-12-24T08:48:05.121Z,87.38
2018-12-24T08:49:05.101Z,87.59
2018-12-24T08:50:05.079Z,87.70
2018-12-24T08:51:05.071Z,87.43
2018-12-24T08:52:05.054Z,87.32
2018-12-24T08:53:05.069Z,87.90
2018-12-24T08:54:05.038Z,87.12
2018-12-24T08:55:05.027Z,87.95
2018-12-24T08:56:05.016Z,88.05
2018-12-24T08:57:05.003Z,88.36
2018-12-24T08:58:04.986Z,88.15
2018-12-24T08:59:05.008Z,88.15
2018-12-24T09:00:05.002Z,87.74
2018-12-24T09:01:04.951Z,89.04
2018-12-24T09:02:04.951Z,88.98
2018-12-24T09:03:04.928Z,88.05
2018-12-24T09:04:04.920Z,88.36
2018-12-24T09:05:04.945Z,88.94
2018-12-24T09:06:04.909Z,88.36
2018-12-24T09:07:04.886Z,88.15
2018-12-24T09:08:04.971Z,87.84
2018-12-24T09:09:04.869Z,88.15
2018-12-24T09:10:04.895Z,88.98
2018-12-24T09:11:04.855Z,87.99
2018-12-24T09:12:04.840Z,87.99
2018-12-24T09:13:04.845Z,87.95
2018-12-24T09:14:04.828Z,86.33
2018-12-24T09:15:04.817Z,85.91
2018-12-24T09:16:04.800Z,86.95
2018-12-24T09:17:04.789Z,86.95
2018-12-24T09:18:04.785Z,85.60
2018-12-24T09:19:04.769Z,86.33
2018-12-24T09:20:04.778Z,85.08
2018-12-24T09:21:04.743Z,85.50
2018-12-24T09:22:04.723Z,86.64
2018-12-24T09:23:04.712Z,85.50
2018-12-24T09:24:04.722Z,84.46
2018-12-24T09:25:04.965Z,83.32
2018-12-24T09:26:04.689Z,82.70
2018-12-24T09:27:04.679Z,83.84
2018-12-24T09:28:04.681Z,83.53
2018-12-24T09:29:04.653Z,82.90
2018-12-24T09:30:04.677Z,83.11
2018-12-24T09:31:04.628Z,83.22
2018-12-24T09:32:04.635Z,82.84
2018-12-24T09:33:04.613Z,84.05
2018-12-24T09:34:04.619Z,83.73
2018-12-24T09:35:04.616Z,83.11
2018-12-24T09:36:04.583Z,82.49
2018-12-24T09:37:04.566Z,82.59
2018-12-24T09:38:04.551Z,82.28
2018-12-24T09:39:04.536Z,82.28
2018-12-24T09:41:13.762Z,80.21
2018-12-24T09:42:14.717Z,80.00
2018-12-24T09:43:14.693Z,81.35
2018-12-24T09:44:14.687Z,81.45
2018-12-24T09:45:14.676Z,82.59
2018-12-24T09:46:14.687Z,82.32
2018-12-24T09:47:14.677Z,81.35
2018-12-24T09:48:14.658Z,81.04
2018-12-24T09:49:14.633Z,82.28
2018-12-24T09:50:14.631Z,82.90
2018-12-24T09:51:14.875Z,83.53
2018-12-24T09:52:14.617Z,83.22
2018-12-24T09:53:14.601Z,83.01
2018-12-24T09:54:14.585Z,82.49
2018-12-24T09:55:14.592Z,83.22
2018-12-24T09:56:14.581Z,82.28
2018-12-24T09:57:14.569Z,83.42
2018-12-24T09:58:14.554Z,82.28
2018-12-24T09:59:14.537Z,82.28
2018-12-24T10:00:14.520Z,82.49
2018-12-24T10:01:14.526Z,82.28
2018-12-24T10:02:16.367Z,81.56
2018-12-24T10:03:14.529Z,81.66
2018-12-24T10:04:14.522Z,81.45
2018-12-24T10:05:14.467Z,81.35
2018-12-24T10:06:14.479Z,83.01
2018-12-24T10:07:14.536Z,82.18
2018-12-24T10:08:14.444Z,82.45
2018-12-24T10:09:14.444Z,82.65
2018-12-24T10:10:14.490Z,81.62
2018-12-24T10:11:14.431Z,82.86
2018-12-24T10:12:14.410Z,82.45
2018-12-24T10:13:14.371Z,82.24
2018-12-24T10:14:14.374Z,82.55
2018-12-24T10:15:14.366Z,82.55
2018-12-24T10:16:14.359Z,82.45
2018-12-24T10:17:14.343Z,82.76
2018-12-24T10:18:14.332Z,81.30
2018-12-24T10:19:14.323Z,81.41
2018-12-24T10:20:14.306Z,80.89
2018-12-24T10:21:14.312Z,81.93
2018-12-24T10:22:14.291Z,81.41
2018-12-24T10:23:14.274Z,81.72
2018-12-24T10:24:14.268Z,83.07
2018-12-24T10:25:14.247Z,81.93
2018-12-24T10:26:14.257Z,82.93
2018-12-24T10:27:14.226Z,82.31
2018-12-24T10:28:14.216Z,81.79
2018-12-24T10:29:14.225Z,82.20
2018-12-24T10:30:14.192Z,81.20
2018-12-24T10:31:14.202Z,82.51
2018-12-24T10:32:14.193Z,81.27
2018-12-24T10:33:14.171Z,81.06
2018-12-24T10:34:14.163Z,81.30
2018-12-24T10:35:14.146Z,82.41
2018-12-24T10:36:14.149Z,81.16
2018-12-24T10:37:14.145Z,81.06
2018-12-24T10:38:14.114Z,81.44
2018-12-24T10:39:14.099Z,82.17
2018-12-24T10:40:14.092Z,82.79
2018-12-24T10:41:14.079Z,81.54
2018-12-24T10:42:14.154Z,81.23
2018-12-24T10:43:14.057Z,81.27
2018-12-24T10:44:14.057Z,80.30
2018-12-24T10:45:16.694Z,80.09
2018-12-24T10:46:14.030Z,80.88
2018-12-24T10:47:14.024Z,80.47
2018-12-24T10:48:14.015Z,79.44
2018-12-24T10:49:13.988Z,79.74
2018-12-24T10:50:13.981Z,80.57
2018-12-24T10:51:13.976Z,80.05
2018-12-24T10:52:13.961Z,80.05
2018-12-24T10:53:14.963Z,79.95
2018-12-24T10:54:13.928Z,79.37
2018-12-24T10:55:13.929Z,80.19
2018-12-24T10:56:13.934Z,80.51
2018-12-24T10:57:13.902Z,80.30
2018-12-24T10:58:13.903Z,80.19
2018-12-24T10:59:13.911Z,79.78
2018-12-24T11:00:13.878Z,80.19
2018-12-24T11:01:13.859Z,79.78
2018-12-24T11:02:13.851Z,80.82
2018-12-24T11:03:13.845Z,82.06
2018-12-24T11:04:13.850Z,81.30
2018-12-24T11:05:13.825Z,82.65
2018-12-24T11:06:13.806Z,80.30
2018-12-24T11:07:13.803Z,79.37
2018-12-24T11:08:13.792Z,79.78
2018-12-24T11:09:13.796Z,81.44
2018-12-24T11:10:13.765Z,80.82
2018-12-24T11:11:13.757Z,81.16
2018-12-24T11:12:13.745Z,81.41
2018-12-24T11:13:13.729Z,82.55
2018-12-24T11:14:13.735Z,82.55
2018-12-24T11:15:13.724Z,82.24
2018-12-24T11:16:13.706Z,82.76
2018-12-24T11:17:13.705Z,82.82
2018-12-24T11:18:13.679Z,82.51
2018-12-24T11:19:13.699Z,82.24
2018-12-24T11:20:13.675Z,82.24
2018-12-24T11:21:13.640Z,82.34
2018-12-24T11:22:13.634Z,81.41
2018-12-24T11:23:13.636Z,81.62
2018-12-24T11:24:13.634Z,82.03
2018-12-24T11:25:13.606Z,82.34
2018-12-24T11:26:13.597Z,82.97
2018-12-24T11:27:13.576Z,82.86
2018-12-24T11:28:13.572Z,82.20
2018-12-24T11:29:13.838Z,80.85
2018-12-24T11:30:13.556Z,81.20
2018-12-24T11:31:13.534Z,81.02
2018-12-24T11:32:13.525Z,80.82
2018-12-24T11:33:13.516Z,80.40
2018-12-24T11:34:13.533Z,81.85
2018-12-24T11:35:13.492Z,80.51
2018-12-24T11:36:13.484Z,80.40
2018-12-24T11:37:13.469Z,80.54
2018-12-24T11:38:13.461Z,80.13
2018-12-24T11:39:13.475Z,81.13
2018-12-24T11:40:13.448Z,80.33
2018-12-24T11:42:22.619Z,80.33
2018-12-24T11:43:23.620Z,81.06
2018-12-24T11:44:23.628Z,80.85
2018-12-24T11:45:23.595Z,81.27
2018-12-24T11:46:23.575Z,81.27
2018-12-24T11:47:23.577Z,81.48
2018-12-24T11:48:23.558Z,81.16
2018-12-24T11:49:23.580Z,81.68
2018-12-24T11:50:23.556Z,81.23
2018-12-24T11:51:23.527Z,82.41
2018-12-24T11:52:23.515Z,81.48
2018-12-24T11:53:23.516Z,80.33
2018-12-24T11:54:23.524Z,80.13
2018-12-24T11:55:23.485Z,80.23
2018-12-24T11:56:23.481Z,79.92
2018-12-24T11:57:24.377Z,80.13
2018-12-24T11:58:23.449Z,81.02
2018-12-24T11:59:23.458Z,79.99
2018-12-24T12:00:23.439Z,80.40
2018-12-24T12:01:23.415Z,81.09
2018-12-24T12:02:23.417Z,80.16
2018-12-24T12:03:23.399Z,80.30
2018-12-24T12:04:23.409Z,80.26
2018-12-24T12:05:23.376Z,79.88
2018-12-24T12:06:23.364Z,80.30
2018-12-24T12:07:23.347Z,80.19
2018-12-24T12:08:23.348Z,80.51
2018-12-24T12:09:23.359Z,80.51
2018-12-24T12:10:23.328Z,80.19
2018-12-24T12:11:23.304Z,80.44
2018-12-24T12:12:23.295Z,80.40
2018-12-24T12:13:23.281Z,80.09
2018-12-24T12:14:23.300Z,80.92
2018-12-24T12:15:23.275Z,80.51
2018-12-24T12:16:23.247Z,80.30
2018-12-24T12:17:23.292Z,81.02
2018-12-24T12:18:23.248Z,80.78
2018-12-24T12:19:23.239Z,80.92
2018-12-24T12:20:23.382Z,81.09
2018-12-24T12:21:23.215Z,80.99
2018-12-24T12:22:23.190Z,79.88
2018-12-24T12:23:23.171Z,80.51
2018-12-24T12:24:23.195Z,81.30
2018-12-24T12:25:23.157Z,80.71
2018-12-24T12:26:23.143Z,81.13
2018-12-24T12:27:23.141Z,80.09
2018-12-24T12:28:23.119Z,79.78
2018-12-24T12:29:23.136Z,80.19
2018-12-24T12:30:23.108Z,80.05
2018-12-24T12:31:23.097Z,80.16
2018-12-24T12:32:23.074Z,78.75
2018-12-24T12:33:23.077Z,78.92
2018-12-24T12:34:23.080Z,79.23
2018-12-24T12:35:23.042Z,80.05
2018-12-24T12:36:23.032Z,79.09
2018-12-24T12:37:23.031Z,78.78
2018-12-24T12:38:29.674Z,79.40
2018-12-24T12:39:23.005Z,79.19
2018-12-24T12:40:22.987Z,79.19
2018-12-24T12:41:22.985Z,78.78
2018-12-24T12:42:22.970Z,79.09
2018-12-24T12:43:23.884Z,78.16
2018-12-24T12:44:22.939Z,78.99
2018-12-24T12:45:22.969Z,78.92
2018-12-24T12:46:22.918Z,78.99
2018-12-24T12:47:22.908Z,80.22
2018-12-24T12:48:22.895Z,78.88
2018-12-24T12:49:22.892Z,79.40
2018-12-24T12:50:22.902Z,79.09
2018-12-24T12:51:22.864Z,79.40
2018-12-24T12:52:22.862Z,78.78
2018-12-24T12:53:22.855Z,79.91
2018-12-24T12:54:22.829Z,80.22
2018-12-24T12:55:23.096Z,80.02
2018-12-24T12:56:22.823Z,81.16
2018-12-24T12:57:22.803Z,78.95
2018-12-24T12:58:22.793Z,79.05
2018-12-24T12:59:22.789Z,78.43